Time;durP1;ratioP1;P1;durP2;ratioP2;P2;SDS_P1;SDS_P2;PMS_P1;PMS_P2;Temp;Humidity;BMP_temperature;BMP_pressure;BME280_temperature;BME280_humidity;BME280_pressure;Samples;Min_cycle;Max_cycle;Signal;HPM_P1;HPM_P2
2022/07/04 00:00:10;;;;;;;7.18;5.47;;;;;;;;;;5015164;28;20017;-80
2022/07/04 00:02:37;;;;;;;7.88;5.35;;;;;;;;;;5011282;28;20084;-80
2022/07/04 00:05:04;;;;;;;6.43;5.32;;;;;;;;;;4996088;28;20042;-81
2022/07/04 00:07:30;;;;;;;8.07;5.70;;;;;;;;;;4994778;28;20026;-81
2022/07/04 00:09:56;;;;;;;7.25;5.85;;;;;;;;;;4995340;28;20038;-80
2022/07/04 00:12:22;;;;;;;7.90;5.55;;;;;;;;;;4979023;28;20034;-81
2022/07/04 00:14:48;;;;;;;7.65;5.65;;;;;;;;;;4976281;28;20051;-80
2022/07/04 00:17:14;;;;;;;7.30;5.95;;;;;;;;;;4980584;28;20022;-80
2022/07/04 00:19:40;;;;;;;7.63;6.03;;;;;;;;;;4995610;28;20077;-81
2022/07/04 00:22:06;;;;;;;7.18;5.72;;;;;;;;;;4995400;28;20065;-80
2022/07/04 00:24:32;;;;;;;7.30;6.00;;;;;;;;;;4995724;28;20045;-81
2022/07/04 00:26:58;;;;;;;7.40;5.65;;;;;;;;;;4994647;28;20089;-81
2022/07/04 00:29:24;;;;;;;7.85;5.97;;;;;;;;;;4995026;28;20046;-81
2022/07/04 00:31:50;;;;;;;7.70;5.57;;;;;;;;;;4992805;28;20076;-80
2022/07/04 00:34:16;;;;;;;9.80;5.75;;;;;;;;;;4977861;28;20163;-80
2022/07/04 00:36:42;;;;;;;7.40;5.60;;;;;;;;;;4974231;28;20026;-81
2022/07/04 00:39:08;;;;;;;8.27;5.50;;;;;;;;;;5014856;28;20036;-80
2022/07/04 00:41:34;;;;;;;8.93;6.30;;;;;;;;;;5014603;28;20022;-81
2022/07/04 00:44:01;;;;;;;8.52;6.45;;;;;;;;;;5013322;28;20034;-80
2022/07/04 00:46:27;;;;;;;7.57;5.45;;;;;;;;;;5014717;28;20045;-81
2022/07/04 00:48:53;;;;;;;8.07;6.07;;;;;;;;;;5011946;28;20030;-81
2022/07/04 00:51:20;;;;;;;6.90;5.50;;;;;;;;;;5014295;28;20048;-81
2022/07/04 00:53:46;;;;;;;7.15;5.53;;;;;;;;;;5014764;28;20472;-81
2022/07/04 00:56:12;;;;;;;7.25;5.63;;;;;;;;;;5014389;28;20060;-80
2022/07/04 00:58:38;;;;;;;7.60;5.63;;;;;;;;;;5013028;28;20026;-80
2022/07/04 01:01:04;;;;;;;7.25;6.10;;;;;;;;;;5007569;28;20068;-80
2022/07/04 01:03:30;;;;;;;7.38;5.60;;;;;;;;;;4995094;28;20509;-81
2022/07/04 01:05:58;;;;;;;7.38;5.55;;;;;;;;;;4995164;28;20062;-80
2022/07/04 01:08:24;;;;;;;7.35;5.97;;;;;;;;;;4994877;28;20510;-80
2022/07/04 01:10:50;;;;;;;8.32;6.00;;;;;;;;;;4989547;28;20045;-78
2022/07/04 01:13:20;;;;;;;7.75;6.00;;;;;;;;;;4995750;28;20447;-78
2022/07/04 01:15:46;;;;;;;7.40;6.00;;;;;;;;;;5011755;28;20135;-78
2022/07/04 01:18:13;;;;;;;6.80;5.25;;;;;;;;;;5011775;28;20026;-78
2022/07/04 01:20:39;;;;;;;7.40;5.50;;;;;;;;;;5018129;28;20026;-78
2022/07/04 01:23:05;;;;;;;7.80;6.00;;;;;;;;;;5018164;28;20022;-78
2022/07/04 01:25:32;;;;;;;7.78;6.15;;;;;;;;;;5012116;28;20116;-78
2022/07/04 01:27:58;;;;;;;9.65;6.85;;;;;;;;;;5009291;28;20481;-78
2022/07/04 01:30:24;;;;;;;7.60;6.38;;;;;;;;;;4998410;28;20065;-78
2022/07/04 01:32:50;;;;;;;8.75;6.40;;;;;;;;;;4998224;28;20034;-78
2022/07/04 01:35:16;;;;;;;7.10;5.50;;;;;;;;;;4998257;28;20034;-78
2022/07/04 01:37:42;;;;;;;7.00;5.47;;;;;;;;;;4998414;28;20027;-78
2022/07/04 01:40:09;;;;;;;7.60;5.40;;;;;;;;;;4997278;28;20023;-78
2022/07/04 01:42:35;;;;;;;6.85;5.45;;;;;;;;;;5018647;28;20049;-80
2022/07/04 01:45:02;;;;;;;7.40;5.65;;;;;;;;;;5020373;28;20058;-81
2022/07/04 01:47:28;;;;;;;7.50;5.65;;;;;;;;;;5019954;28;20049;-80
2022/07/04 01:49:54;;;;;;;6.72;5.68;;;;;;;;;;5020259;28;20026;-80
2022/07/04 01:52:20;;;;;;;8.18;5.85;;;;;;;;;;5018810;28;20030;-80
2022/07/04 01:54:46;;;;;;;7.20;5.80;;;;;;;;;;5020962;28;20022;-80
2022/07/04 01:57:12;;;;;;;7.82;5.65;;;;;;;;;;5005337;28;20689;-80
2022/07/04 02:02:24;;;;;;;7.80;5.47;;;;;;;;;;5020776;28;20456;-80
2022/07/04 02:04:50;;;;;;;7.65;6.18;;;;;;;;;;5020728;28;20080;-80
2022/07/04 02:07:16;;;;;;;8.43;6.45;;;;;;;;;;5019089;28;20026;-81
2022/07/04 02:09:42;;;;;;;7.15;5.80;;;;;;;;;;5020028;28;20389;-80
2022/07/04 02:14:53;;;;;;;9.20;6.15;;;;;;;;;;5020067;28;20033;-80
2022/07/04 02:17:19;;;;;;;8.63;5.85;;;;;;;;;;5020626;28;20472;-80
2022/07/04 02:19:45;;;;;;;8.68;6.18;;;;;;;;;;5020521;28;20480;-80
2022/07/04 02:22:11;;;;;;;8.68;5.75;;;;;;;;;;5020364;28;20476;-80
2022/07/04 02:24:37;;;;;;;7.32;5.82;;;;;;;;;;5020679;28;20041;-81
2022/07/04 02:27:03;;;;;;;7.93;6.10;;;;;;;;;;5010831;28;20128;-80
2022/07/04 02:29:29;;;;;;;8.07;5.93;;;;;;;;;;5017095;28;20068;-80
2022/07/04 02:31:55;;;;;;;7.40;5.82;;;;;;;;;;5015895;28;20399;-80
2022/07/04 02:34:22;;;;;;;9.90;5.80;;;;;;;;;;5016806;28;20133;-80
2022/07/04 02:36:48;;;;;;;7.22;5.93;;;;;;;;;;5008735;28;20075;-80
2022/07/04 02:39:14;;;;;;;7.57;5.20;;;;;;;;;;4997663;28;20058;-80
2022/07/04 02:41:40;;;;;;;7.85;5.63;;;;;;;;;;4997491;28;20026;-81
2022/07/04 02:44:06;;;;;;;8.18;6.22;;;;;;;;;;4997327;28;20022;-81
2022/07/04 02:46:32;;;;;;;7.43;5.60;;;;;;;;;;5003578;28;20168;-81
2022/07/04 02:48:59;;;;;;;7.28;5.78;;;;;;;;;;5016627;28;20022;-81
2022/07/04 02:51:25;;;;;;;9.32;6.20;;;;;;;;;;5016874;28;20030;-81
2022/07/04 02:53:51;;;;;;;7.53;5.60;;;;;;;;;;5016486;28;20392;-81
2022/07/04 02:56:17;;;;;;;7.95;5.55;;;;;;;;;;5003094;28;20037;-80
2022/07/04 02:58:43;;;;;;;8.52;5.88;;;;;;;;;;4998962;28;20030;-80
2022/07/04 03:01:10;;;;;;;6.80;5.47;;;;;;;;;;5016173;28;20030;-80
2022/07/04 03:03:36;;;;;;;12.20;6.57;;;;;;;;;;5004682;28;20124;-80
2022/07/04 03:06:02;;;;;;;7.03;5.68;;;;;;;;;;4996041;28;20074;-80
2022/07/04 03:08:28;;;;;;;7.85;5.93;;;;;;;;;;5000303;28;20113;-80
2022/07/04 03:10:54;;;;;;;7.45;5.60;;;;;;;;;;5014106;28;20026;-81
2022/07/04 03:13:20;;;;;;;8.95;6.53;;;;;;;;;;5016272;28;20105;-80
2022/07/04 03:15:46;;;;;;;7.95;6.05;;;;;;;;;;5016335;28;20029;-80
2022/07/04 03:18:14;;;;;;;8.38;6.10;;;;;;;;;;5014644;28;20026;-80
2022/07/04 03:20:40;;;;;;;8.50;6.43;;;;;;;;;;5014644;28;20022;-80
2022/07/04 03:23:06;;;;;;;7.32;5.82;;;;;;;;;;5016768;28;20113;-81
2022/07/04 03:25:32;;;;;;;7.93;6.20;;;;;;;;;;5008687;28;20030;-80
2022/07/04 03:27:58;;;;;;;8.45;5.75;;;;;;;;;;4996758;28;20380;-80
2022/07/04 03:30:25;;;;;;;7.95;5.90;;;;;;;;;;5009410;28;20038;-81
2022/07/04 03:32:51;;;;;;;8.80;6.22;;;;;;;;;;5016020;28;20053;-80
2022/07/04 03:35:17;;;;;;;8.20;6.07;;;;;;;;;;5015724;28;20467;-80
2022/07/04 03:37:43;;;;;;;7.45;6.10;;;;;;;;;;5016020;28;20034;-80
2022/07/04 03:40:09;;;;;;;8.40;5.78;;;;;;;;;;5014231;28;20053;-80
2022/07/04 03:42:35;;;;;;;6.95;5.70;;;;;;;;;;5014430;28;20084;-80
2022/07/04 03:45:02;;;;;;;6.90;5.50;;;;;;;;;;5015744;28;20490;-80
2022/07/04 03:47:27;;;;;;;8.07;5.65;;;;;;;;;;5002829;28;20023;-80
2022/07/04 03:49:53;;;;;;;8.88;6.20;;;;;;;;;;4996174;28;20408;-80
2022/07/04 03:52:19;;;;;;;8.25;5.43;;;;;;;;;;5003177;28;20045;-81
2022/07/04 03:54:45;;;;;;;9.77;5.85;;;;;;;;;;5015548;28;20085;-80
2022/07/04 03:57:11;;;;;;;7.82;6.93;;;;;;;;;;5011807;28;20194;-81
2022/07/04 03:59:37;;;;;;;8.15;6.10;;;;;;;;;;5015125;28;20040;-80
2022/07/04 04:02:04;;;;;;;8.68;6.28;;;;;;;;;;5015307;28;20025;-80
2022/07/04 04:07:15;;;;;;;7.88;5.97;;;;;;;;;;5015120;28;20115;-80
2022/07/04 04:09:41;;;;;;;8.98;6.55;;;;;;;;;;5015074;28;20032;-80
2022/07/04 04:12:07;;;;;;;9.23;6.53;;;;;;;;;;5015029;28;20041;-80
2022/07/04 04:14:33;;;;;;;8.77;6.68;;;;;;;;;;5015403;28;20021;-80
2022/07/04 04:16:59;;;;;;;8.65;6.10;;;;;;;;;;5003575;28;20473;-80
2022/07/04 04:19:25;;;;;;;9.52;6.43;;;;;;;;;;4995799;28;20030;-80
2022/07/04 04:21:52;;;;;;;8.60;6.22;;;;;;;;;;4995466;28;20026;-80
2022/07/04 04:24:18;;;;;;;7.25;5.65;;;;;;;;;;4995396;28;20037;-80
2022/07/04 04:26:44;;;;;;;9.57;6.38;;;;;;;;;;4995540;28;20023;-80
2022/07/04 04:29:10;;;;;;;8.25;5.80;;;;;;;;;;4994263;28;20254;-80
2022/07/04 04:31:36;;;;;;;8.13;5.93;;;;;;;;;;4995525;28;20373;-80
2022/07/04 04:34:02;;;;;;;11.40;6.35;;;;;;;;;;4995067;28;20030;-80
2022/07/04 04:36:28;;;;;;;7.70;5.93;;;;;;;;;;4994026;28;20102;-80
2022/07/04 04:38:54;;;;;;;7.57;5.82;;;;;;;;;;5000921;28;20485;-80
2022/07/04 04:41:20;;;;;;;7.78;5.68;;;;;;;;;;5014720;28;20029;-80
2022/07/04 04:43:46;;;;;;;7.68;5.78;;;;;;;;;;5014777;28;20018;-80
2022/07/04 04:46:12;;;;;;;7.50;5.75;;;;;;;;;;5011422;28;20542;-80
2022/07/04 04:48:39;;;;;;;7.13;4.82;;;;;;;;;;4998341;28;20034;-80
2022/07/04 04:51:05;;;;;;;9.70;6.05;;;;;;;;;;5014551;28;20029;-80
2022/07/04 04:53:31;;;;;;;7.35;5.47;;;;;;;;;;5014946;28;20029;-80
2022/07/04 04:55:57;;;;;;;8.30;5.47;;;;;;;;;;5014921;28;20053;-80
2022/07/04 04:58:25;;;;;;;10.20;5.65;;;;;;;;;;5014600;28;20033;-80
2022/07/04 05:00:51;;;;;;;8.27;5.47;;;;;;;;;;5012279;28;20539;-80
2022/07/04 05:03:17;;;;;;;7.65;5.03;;;;;;;;;;5014716;28;20049;-80
2022/07/04 05:05:44;;;;;;;9.02;5.57;;;;;;;;;;5014491;28;20480;-80
2022/07/04 05:08:10;;;;;;;7.05;4.90;;;;;;;;;;5014392;28;20056;-80
2022/07/04 05:10:36;;;;;;;8.60;5.45;;;;;;;;;;5014400;28;20057;-80
2022/07/04 05:13:03;;;;;;;11.25;6.50;;;;;;;;;;5011859;28;20029;-81
2022/07/04 05:15:29;;;;;;;12.02;5.97;;;;;;;;;;5013262;28;20018;-80
2022/07/04 05:17:55;;;;;;;8.77;5.25;;;;;;;;;;4999338;28;20070;-80
2022/07/04 05:20:22;;;;;;;7.25;4.63;;;;;;;;;;4995073;28;20026;-80
2022/07/04 05:22:48;;;;;;;6.57;4.35;;;;;;;;;;4992043;28;20084;-78
2022/07/04 05:25:14;;;;;;;6.93;4.65;;;;;;;;;;4991206;28;20034;-78
2022/07/04 05:27:40;;;;;;;6.70;5.07;;;;;;;;;;4992091;28;20106;-78
2022/07/04 05:30:07;;;;;;;7.18;4.70;;;;;;;;;;4991876;28;20019;-78
2022/07/04 05:32:33;;;;;;;5.82;4.63;;;;;;;;;;4991787;28;20165;-77
2022/07/04 05:34:59;;;;;;;6.53;5.10;;;;;;;;;;4996830;28;20497;-78
2022/07/04 05:37:25;;;;;;;6.45;4.90;;;;;;;;;;5010531;28;20029;-79
2022/07/04 05:39:52;;;;;;;6.28;4.95;;;;;;;;;;5011295;28;20095;-78
2022/07/04 05:42:18;;;;;;;9.55;5.20;;;;;;;;;;5011357;28;20025;-78
2022/07/04 05:44:44;;;;;;;6.95;4.63;;;;;;;;;;5011500;28;20033;-79
2022/07/04 05:47:10;;;;;;;6.18;4.72;;;;;;;;;;4999034;28;20031;-78
2022/07/04 05:49:36;;;;;;;6.95;4.65;;;;;;;;;;4996323;28;20041;-78
2022/07/04 05:52:02;;;;;;;6.35;5.15;;;;;;;;;;5010287;28;20033;-79
2022/07/04 05:54:28;;;;;;;7.07;5.35;;;;;;;;;;5011452;28;20037;-78
2022/07/04 05:56:55;;;;;;;7.78;4.88;;;;;;;;;;5011960;28;20376;-80
2022/07/04 05:59:21;;;;;;;7.90;5.00;;;;;;;;;;5013630;28;20032;-80
2022/07/04 06:01:47;;;;;;;7.45;4.72;;;;;;;;;;5014392;28;20053;-79
2022/07/04 06:04:13;;;;;;;6.28;4.68;;;;;;;;;;5012510;28;20026;-80
2022/07/04 06:06:39;;;;;;;6.15;4.35;;;;;;;;;;5017596;28;20377;-80
2022/07/04 06:09:05;;;;;;;6.57;4.60;;;;;;;;;;5017429;28;20507;-80
2022/07/04 06:11:31;;;;;;;6.55;5.07;;;;;;;;;;5017568;28;20037;-79
2022/07/04 06:13:57;;;;;;;6.53;4.82;;;;;;;;;;5011171;28;20029;-80
2022/07/04 06:16:23;;;;;;;7.65;5.15;;;;;;;;;;5012562;28;20041;-79
2022/07/04 06:18:49;;;;;;;9.10;5.78;;;;;;;;;;4996333;28;20018;-80
2022/07/04 06:21:15;;;;;;;6.57;4.90;;;;;;;;;;4997764;28;20400;-79
2022/07/04 06:23:41;;;;;;;7.47;5.18;;;;;;;;;;4997844;28;20030;-79
2022/07/04 06:26:07;;;;;;;8.68;6.13;;;;;;;;;;5017098;28;20014;-79
2022/07/04 06:28:33;;;;;;;8.02;4.97;;;;;;;;;;5017234;28;20368;-79
2022/07/04 06:30:59;;;;;;;7.03;5.07;;;;;;;;;;5017234;28;20076;-80
2022/07/04 06:33:25;;;;;;;7.55;5.43;;;;;;;;;;5017233;28;20034;-79
2022/07/04 06:35:54;;;;;;;6.70;4.88;;;;;;;;;;5015851;28;20046;-79
2022/07/04 06:38:27;;;;;;;7.93;4.78;;;;;;;;;;5016549;28;20018;-80
2022/07/04 06:40:54;;;;;;;7.20;5.35;;;;;;;;;;5016756;28;20026;-80
2022/07/04 06:43:20;;;;;;;7.93;5.25;;;;;;;;;;5017645;28;20049;-79
2022/07/04 06:45:46;;;;;;;8.35;4.97;;;;;;;;;;4998015;28;20040;-80
2022/07/04 06:48:12;;;;;;;8.13;5.00;;;;;;;;;;4977350;28;20490;-80
2022/07/04 06:50:38;;;;;;;8.07;4.60;;;;;;;;;;4979218;28;20035;-80
2022/07/04 06:53:05;;;;;;;7.80;5.60;;;;;;;;;;5016626;28;20058;-79
2022/07/04 06:55:32;;;;;;;6.70;5.00;;;;;;;;;;5017104;28;20026;-79
2022/07/04 06:57:58;;;;;;;8.13;4.82;;;;;;;;;;5016524;28;20029;-79
2022/07/04 07:00:24;;;;;;;8.40;5.40;;;;;;;;;;5015472;28;20491;-80
2022/07/04 07:02:50;;;;;;;6.25;5.13;;;;;;;;;;5013004;28;20082;-81
2022/07/04 07:05:16;;;;;;;6.72;4.60;;;;;;;;;;5019492;28;20432;-79
2022/07/04 07:07:42;;;;;;;6.43;4.63;;;;;;;;;;5028881;28;20052;-78
2022/07/04 07:10:08;;;;;;;7.57;4.18;;;;;;;;;;5022491;28;20076;-79
2022/07/04 07:12:35;;;;;;;6.85;4.82;;;;;;;;;;5028256;28;20509;-78
2022/07/04 07:15:01;;;;;;;7.25;5.25;;;;;;;;;;5002720;28;20338;-80
2022/07/04 07:17:28;;;;;;;6.05;4.75;;;;;;;;;;5003461;28;20032;-79
2022/07/04 07:19:55;;;;;;;6.47;4.72;;;;;;;;;;5009132;28;20539;-79
2022/07/04 07:22:21;;;;;;;5.75;4.22;;;;;;;;;;5002348;28;20097;-80
2022/07/04 07:24:47;;;;;;;5.65;3.92;;;;;;;;;;4997441;28;20034;-81
2022/07/04 07:27:13;;;;;;;7.55;4.32;;;;;;;;;;4996810;28;20032;-79
2022/07/04 07:29:39;;;;;;;5.80;4.32;;;;;;;;;;4997538;28;20031;-80
2022/07/04 07:32:06;;;;;;;7.88;4.53;;;;;;;;;;4998482;28;20031;-80
2022/07/04 07:34:32;;;;;;;5.95;4.10;;;;;;;;;;4999909;28;20107;-80
2022/07/04 07:36:58;;;;;;;5.88;4.50;;;;;;;;;;5017402;28;20026;-80
2022/07/04 07:39:24;;;;;;;6.35;4.55;;;;;;;;;;5017150;28;20028;-80
2022/07/04 07:41:50;;;;;;;6.75;4.60;;;;;;;;;;5016790;28;20109;-80
2022/07/04 07:44:16;;;;;;;6.20;4.40;;;;;;;;;;5015927;28;20395;-80
2022/07/04 07:46:42;;;;;;;5.18;4.30;;;;;;;;;;5010370;28;20026;-80
2022/07/04 07:49:08;;;;;;;6.13;4.43;;;;;;;;;;4997033;28;20039;-80
2022/07/04 07:51:34;;;;;;;7.55;4.75;;;;;;;;;;4997097;28;20080;-80
2022/07/04 07:54:00;;;;;;;6.35;4.60;;;;;;;;;;4996178;28;20030;-80
2022/07/04 07:56:26;;;;;;;6.43;4.10;;;;;;;;;;4996817;28;20081;-80
2022/07/04 07:58:52;;;;;;;6.15;4.45;;;;;;;;;;5013564;28;20421;-79
2022/07/04 08:01:18;;;;;;;5.95;4.25;;;;;;;;;;5021057;28;20022;-78
2022/07/04 08:06:29;;;;;;;6.15;3.97;;;;;;;;;;5021449;28;20090;-78
2022/07/04 08:08:55;;;;;;;6.28;4.10;;;;;;;;;;5017245;28;20611;-78
2022/07/04 08:11:21;;;;;;;5.22;4.00;;;;;;;;;;5016394;28;20025;-78
2022/07/04 08:13:48;;;;;;;4.78;4.00;;;;;;;;;;5014050;28;20029;-79
2022/07/04 08:16:14;;;;;;;5.97;3.88;;;;;;;;;;5012780;28;20041;-79
2022/07/04 08:18:40;;;;;;;5.20;3.67;;;;;;;;;;4979667;28;20035;-79
2022/07/04 08:21:06;;;;;;;6.80;3.80;;;;;;;;;;4976689;28;20027;-79
2022/07/04 08:23:33;;;;;;;5.95;3.90;;;;;;;;;;4976106;28;20427;-79
2022/07/04 08:26:00;;;;;;;6.30;3.85;;;;;;;;;;4998895;28;20026;-79
2022/07/04 08:28:26;;;;;;;6.20;4.03;;;;;;;;;;5013898;28;20073;-79
2022/07/04 08:30:52;;;;;;;5.70;3.55;;;;;;;;;;5014766;28;20081;-80
2022/07/04 08:33:18;;;;;;;5.72;3.35;;;;;;;;;;5015057;28;20052;-79
2022/07/04 08:35:44;;;;;;;5.55;3.50;;;;;;;;;;5013695;28;20072;-80
2022/07/04 08:38:10;;;;;;;6.93;3.40;;;;;;;;;;5013078;28;20025;-79
2022/07/04 08:40:37;;;;;;;5.30;3.30;;;;;;;;;;5014713;28;20021;-79
2022/07/04 08:43:04;;;;;;;5.00;3.13;;;;;;;;;;5015695;28;20044;-79
2022/07/04 08:45:32;;;;;;;4.35;2.90;;;;;;;;;;5014466;28;20018;-81
2022/07/04 08:48:04;;;;;;;4.57;3.17;;;;;;;;;;4997825;28;20080;-82
2022/07/04 08:50:31;;;;;;;5.25;2.90;;;;;;;;;;5012511;28;20030;-80
2022/07/04 08:52:59;;;;;;;5.28;2.80;;;;;;;;;;5004733;28;20050;-80
2022/07/04 08:58:26;;;;;;;3.80;2.50;;;;;;;;;;5015573;28;20503;-80
2022/07/04 09:00:55;;;;;;;4.73;3.17;;;;;;;;;;5015490;28;20021;-79
2022/07/04 09:03:22;;;;;;;4.63;2.55;;;;;;;;;;5015494;28;20030;-81
2022/07/04 09:05:49;;;;;;;4.75;2.60;;;;;;;;;;5004622;28;20026;-80
2022/07/04 09:08:15;;;;;;;6.63;3.03;;;;;;;;;;4994310;28;20120;-80
2022/07/04 09:10:41;;;;;;;4.03;2.50;;;;;;;;;;4995566;28;20042;-80
2022/07/04 09:13:08;;;;;;;7.03;2.40;;;;;;;;;;4995731;28;20030;-79
2022/07/04 09:15:34;;;;;;;4.05;2.60;;;;;;;;;;5000032;28;20058;-79
2022/07/04 09:18:01;;;;;;;4.70;2.95;;;;;;;;;;5014996;28;20397;-82
2022/07/04 09:20:28;;;;;;;4.38;2.58;;;;;;;;;;5015002;28;20087;-80
2022/07/04 09:22:54;;;;;;;4.60;2.85;;;;;;;;;;5003950;28;20392;-80
2022/07/04 09:25:22;;;;;;;5.07;2.80;;;;;;;;;;4993850;28;20057;-80
2022/07/04 09:27:49;;;;;;;5.20;2.60;;;;;;;;;;4994482;28;20282;-80
2022/07/04 09:30:16;;;;;;;4.45;2.70;;;;;;;;;;4994688;28;20041;-80
2022/07/04 09:32:46;;;;;;;5.38;2.95;;;;;;;;;;4994447;28;20057;-79
2022/07/04 09:35:22;;;;;;;4.30;2.40;;;;;;;;;;4997546;28;20112;-79
2022/07/04 09:37:50;;;;;;;4.82;3.08;;;;;;;;;;5014273;28;20018;-80
2022/07/04 09:40:26;;;;;;;4.20;2.75;;;;;;;;;;5016442;28;20018;-80
2022/07/04 09:42:52;;;;;;;4.47;2.70;;;;;;;;;;5018164;28;20030;-79
2022/07/04 09:45:21;;;;;;;4.63;2.90;;;;;;;;;;5016255;28;20021;-79
2022/07/04 09:47:47;;;;;;;4.93;2.97;;;;;;;;;;5003966;28;20030;-79
2022/07/04 09:50:14;;;;;;;6.80;3.00;;;;;;;;;;5013591;28;20030;-79
2022/07/04 09:53:16;;;;;;;4.35;2.60;;;;;;;;;;4997765;28;20030;-80
2022/07/04 09:55:42;;;;;;;4.75;2.63;;;;;;;;;;4975969;28;20038;-80
2022/07/04 09:58:09;;;;;;;5.35;2.90;;;;;;;;;;4974690;28;20066;-81
2022/07/04 10:00:36;;;;;;;5.07;2.55;;;;;;;;;;4986145;28;20402;-79
2022/07/04 10:03:21;;;;;;;4.05;2.55;;;;;;;;;;4995699;28;20049;-79
2022/07/04 10:05:48;;;;;;;5.07;2.72;;;;;;;;;;4986675;28;20042;-79
2022/07/04 10:08:14;;;;;;;3.97;2.60;;;;;;;;;;4976271;28;20042;-80
2022/07/04 10:10:41;;;;;;;4.57;2.70;;;;;;;;;;4975020;28;20049;-79
2022/07/04 10:13:10;;;;;;;4.45;2.58;;;;;;;;;;4975856;28;20460;-80
2022/07/04 10:15:37;;;;;;;4.88;2.78;;;;;;;;;;4974988;28;20027;-79
2022/07/04 10:18:04;;;;;;;4.72;2.90;;;;;;;;;;4976747;28;20031;-80
2022/07/04 10:20:30;;;;;;;5.10;2.85;;;;;;;;;;4975876;28;20030;-79
2022/07/04 10:22:57;;;;;;;7.22;3.08;;;;;;;;;;4975253;28;20071;-79
2022/07/04 10:25:23;;;;;;;4.38;2.83;;;;;;;;;;4974988;28;20059;-80
2022/07/04 10:27:51;;;;;;;5.28;2.95;;;;;;;;;;4976243;28;20505;-79
2022/07/04 10:30:21;;;;;;;5.30;3.10;;;;;;;;;;4984528;28;20394;-79
2022/07/04 10:32:48;;;;;;;5.68;2.95;;;;;;;;;;4997143;28;20034;-80
2022/07/04 10:35:15;;;;;;;4.70;2.95;;;;;;;;;;4998967;28;20670;-79
2022/07/04 10:38:01;;;;;;;5.32;3.10;;;;;;;;;;5017386;28;20502;-80
2022/07/04 10:40:42;;;;;;;5.70;2.83;;;;;;;;;;5017881;28;20116;-80
2022/07/04 10:43:29;;;;;;;4.70;2.95;;;;;;;;;;5017073;28;20079;-79
2022/07/04 10:45:55;;;;;;;5.80;3.92;;;;;;;;;;5015189;28;20033;-79
2022/07/04 10:48:23;;;;;;;4.47;3.03;;;;;;;;;;5000026;28;20031;-79
2022/07/04 10:51:09;;;;;;;4.97;2.70;;;;;;;;;;4995819;28;20073;-79
2022/07/04 10:53:55;;;;;;;4.40;2.92;;;;;;;;;;4995927;28;20117;-78
2022/07/04 10:56:21;;;;;;;4.68;2.90;;;;;;;;;;4996622;28;20042;-80
2022/07/04 10:58:47;;;;;;;5.10;3.25;;;;;;;;;;5012035;28;20480;-79
2022/07/04 11:01:13;;;;;;;4.97;3.17;;;;;;;;;;5019763;28;20097;-79
2022/07/04 11:03:52;;;;;;;5.63;3.20;;;;;;;;;;5016900;28;20034;-78
2022/07/04 11:06:33;;;;;;;4.35;2.78;;;;;;;;;;5006518;28;20432;-78
2022/07/04 11:09:15;;;;;;;4.47;3.08;;;;;;;;;;4996982;28;20026;-78
2022/07/04 11:12:00;;;;;;;4.95;3.38;;;;;;;;;;4998065;28;20042;-80
2022/07/04 11:14:30;;;;;;;5.78;3.45;;;;;;;;;;4997007;28;20030;-80
2022/07/04 11:16:56;;;;;;;6.10;2.97;;;;;;;;;;5008923;28;20484;-78
2022/07/04 11:19:23;;;;;;;5.90;3.20;;;;;;;;;;4997690;28;20061;-79
2022/07/04 11:21:49;;;;;;;6.03;3.40;;;;;;;;;;4997388;28;20030;-80
2022/07/04 11:24:15;;;;;;;6.28;3.17;;;;;;;;;;4997877;28;20030;-79
2022/07/04 11:26:41;;;;;;;6.55;3.78;;;;;;;;;;4989317;28;20031;-79
2022/07/04 11:29:07;;;;;;;4.30;2.80;;;;;;;;;;5010956;28;20030;-80
2022/07/04 11:31:37;;;;;;;4.82;3.08;;;;;;;;;;4998717;28;20027;-79
2022/07/04 11:34:03;;;;;;;4.78;3.10;;;;;;;;;;4996479;28;20031;-80
2022/07/04 11:36:29;;;;;;;5.15;3.08;;;;;;;;;;5010015;28;20049;-79
2022/07/04 11:39:07;;;;;;;5.30;3.17;;;;;;;;;;5016086;28;20026;-80
2022/07/04 11:47:19;;;;;;;5.22;3.15;;;;;;;;;;5017115;28;20061;-80
2022/07/04 11:49:49;;;;;;;7.22;3.38;;;;;;;;;;5016476;28;20049;-80
2022/07/04 11:52:16;;;;;;;4.50;3.03;;;;;;;;;;5016006;28;20061;-79
2022/07/04 11:54:46;;;;;;;4.65;2.90;;;;;;;;;;5014141;28;20559;-80
2022/07/04 11:57:13;;;;;;;5.53;3.42;;;;;;;;;;5013533;28;20022;-79
2022/07/04 11:59:39;;;;;;;6.28;3.15;;;;;;;;;;5010352;28;20018;-79
2022/07/04 12:02:16;;;;;;;4.93;3.20;;;;;;;;;;4996061;28;20555;-80
2022/07/04 12:04:42;;;;;;;6.50;3.25;;;;;;;;;;4996213;28;20464;-79
2022/07/04 12:07:15;;;;;;;5.47;3.00;;;;;;;;;;4995429;28;20026;-80
2022/07/04 12:09:42;;;;;;;4.65;2.70;;;;;;;;;;4996328;28;20065;-81
2022/07/04 12:12:08;;;;;;;4.90;2.90;;;;;;;;;;4995882;28;20149;-80
2022/07/04 12:14:34;;;;;;;6.95;2.70;;;;;;;;;;4995314;28;20384;-79
2022/07/04 12:17:15;;;;;;;5.05;2.88;;;;;;;;;;5001122;28;20026;-80
2022/07/04 12:19:51;;;;;;;5.65;3.00;;;;;;;;;;5015617;28;20071;-80
2022/07/04 12:22:34;;;;;;;4.60;2.80;;;;;;;;;;5015186;28;20048;-80
2022/07/04 12:25:00;;;;;;;4.53;2.70;;;;;;;;;;5015697;28;20514;-79
2022/07/04 12:27:27;;;;;;;5.15;2.60;;;;;;;;;;5013827;28;20034;-80
2022/07/04 12:29:54;;;;;;;5.90;2.70;;;;;;;;;;5015128;28;20025;-80
2022/07/04 12:32:21;;;;;;;4.82;2.90;;;;;;;;;;5014815;28;20037;-79
2022/07/04 12:34:47;;;;;;;4.90;2.60;;;;;;;;;;5015051;28;20228;-79
2022/07/04 12:37:14;;;;;;;7.07;2.60;;;;;;;;;;5013906;28;20040;-81
2022/07/04 12:39:43;;;;;;;5.25;2.83;;;;;;;;;;5015405;28;20029;-80
2022/07/04 12:42:09;;;;;;;4.80;2.60;;;;;;;;;;5015702;28;20025;-80
2022/07/04 12:44:36;;;;;;;4.50;2.97;;;;;;;;;;5011149;28;20022;-79
2022/07/04 12:47:03;;;;;;;8.65;3.13;;;;;;;;;;4994427;28;20026;-81
2022/07/04 12:49:29;;;;;;;4.78;2.67;;;;;;;;;;4995986;28;20033;-80
2022/07/04 12:52:05;;;;;;;4.07;2.40;;;;;;;;;;4996104;28;20076;-80
2022/07/04 12:54:31;;;;;;;5.13;2.70;;;;;;;;;;4996383;28;20037;-80
2022/07/04 12:57:14;;;;;;;3.97;2.53;;;;;;;;;;5003894;28;20029;-80
2022/07/04 12:59:40;;;;;;;4.60;2.63;;;;;;;;;;5014784;28;20108;-78
2022/07/04 13:02:07;;;;;;;4.88;2.67;;;;;;;;;;5013799;28;20030;-79
2022/07/04 13:04:34;;;;;;;4.97;2.65;;;;;;;;;;5010428;28;20034;-80
2022/07/04 13:07:01;;;;;;;4.10;2.40;;;;;;;;;;5015163;28;20548;-80
2022/07/04 13:09:27;;;;;;;5.25;2.58;;;;;;;;;;5015676;28;20026;-80
2022/07/04 13:14:38;;;;;;;4.80;2.40;;;;;;;;;;5009324;28;20073;-79
2022/07/04 13:17:04;;;;;;;4.78;2.50;;;;;;;;;;4994555;28;20389;-79
2022/07/04 13:19:30;;;;;;;4.75;2.42;;;;;;;;;;4995499;28;20022;-80
2022/07/04 13:21:56;;;;;;;4.63;2.58;;;;;;;;;;4995051;28;20037;-79
2022/07/04 13:24:22;;;;;;;4.22;2.72;;;;;;;;;;5005195;28;20030;-79
2022/07/04 13:26:48;;;;;;;5.78;2.70;;;;;;;;;;5014933;28;20494;-80
2022/07/04 13:29:14;;;;;;;7.07;3.20;;;;;;;;;;5011179;28;20037;-81
2022/07/04 13:31:40;;;;;;;4.88;2.40;;;;;;;;;;4995548;28;20406;-79
2022/07/04 13:34:06;;;;;;;4.57;2.60;;;;;;;;;;5003297;28;20041;-79
2022/07/04 13:36:32;;;;;;;4.85;2.30;;;;;;;;;;5008622;28;20058;-80
2022/07/04 13:38:58;;;;;;;5.07;2.63;;;;;;;;;;4994969;28;20026;-80
2022/07/04 13:41:24;;;;;;;6.63;2.33;;;;;;;;;;4994468;28;20093;-80
2022/07/04 13:43:51;;;;;;;6.97;2.50;;;;;;;;;;5000304;28;20030;-80
2022/07/04 13:46:17;;;;;;;4.25;2.70;;;;;;;;;;5014586;28;20109;-80
2022/07/04 13:48:43;;;;;;;5.95;2.95;;;;;;;;;;5014971;28;20026;-80
2022/07/04 13:51:09;;;;;;;6.80;2.53;;;;;;;;;;5014814;28;20022;-80
2022/07/04 13:53:36;;;;;;;6.07;2.50;;;;;;;;;;5013377;28;20030;-80
2022/07/04 13:56:04;;;;;;;4.57;2.10;;;;;;;;;;5014420;28;20018;-79
2022/07/04 13:58:30;;;;;;;4.65;2.67;;;;;;;;;;5011718;28;20088;-80
2022/07/04 14:00:58;;;;;;;3.88;2.40;;;;;;;;;;5014540;28;20022;-80
2022/07/04 14:03:24;;;;;;;5.95;2.40;;;;;;;;;;5010443;28;20031;-80
2022/07/04 14:05:50;;;;;;;3.92;2.40;;;;;;;;;;4994805;28;20150;-79
2022/07/04 14:08:16;;;;;;;4.95;2.60;;;;;;;;;;4995294;28;20065;-79
2022/07/04 14:10:42;;;;;;;4.85;2.60;;;;;;;;;;4994808;28;20026;-80
2022/07/04 14:13:08;;;;;;;4.88;2.70;;;;;;;;;;4996200;28;20034;-80
2022/07/04 14:15:35;;;;;;;4.95;2.58;;;;;;;;;;5015056;28;20033;-80
2022/07/04 14:18:03;;;;;;;4.60;2.53;;;;;;;;;;4996264;28;20388;-80
2022/07/04 14:20:29;;;;;;;4.25;2.63;;;;;;;;;;4995362;28;20098;-80
2022/07/04 14:22:55;;;;;;;4.25;2.72;;;;;;;;;;4994185;28;20019;-80
2022/07/04 14:25:21;;;;;;;5.03;2.28;;;;;;;;;;5014614;28;20428;-79
2022/07/04 14:27:47;;;;;;;4.20;2.42;;;;;;;;;;5017909;28;20377;-80
2022/07/04 14:30:13;;;;;;;6.28;2.50;;;;;;;;;;5017734;28;20100;-80
2022/07/04 14:32:39;;;;;;;4.38;2.47;;;;;;;;;;5016340;28;20022;-80
2022/07/04 14:35:05;;;;;;;4.32;2.63;;;;;;;;;;5017517;28;20049;-81
2022/07/04 14:37:31;;;;;;;5.43;2.47;;;;;;;;;;5017017;28;20037;-79
2022/07/04 14:39:57;;;;;;;3.90;2.33;;;;;;;;;;5017556;28;20018;-80
2022/07/04 14:42:23;;;;;;;5.45;2.50;;;;;;;;;;5017424;28;20076;-80
2022/07/04 14:44:49;;;;;;;4.18;2.45;;;;;;;;;;4998310;28;20528;-80
2022/07/04 14:47:15;;;;;;;4.13;2.58;;;;;;;;;;4996442;28;20034;-80
2022/07/04 14:49:41;;;;;;;4.55;2.10;;;;;;;;;;4997627;28;20034;-81
2022/07/04 14:52:07;;;;;;;3.83;1.90;;;;;;;;;;4997822;28;20401;-80
2022/07/04 14:54:33;;;;;;;4.45;2.00;;;;;;;;;;5012998;28;20029;-80
2022/07/04 14:56:59;;;;;;;3.50;2.03;;;;;;;;;;5017866;28;20018;-80
2022/07/04 14:59:25;;;;;;;4.38;2.20;;;;;;;;;;5017364;28;20025;-80
2022/07/04 15:01:54;;;;;;;4.05;2.33;;;;;;;;;;5016458;28;20395;-80
2022/07/04 15:04:20;;;;;;;4.10;2.47;;;;;;;;;;5009886;28;20085;-80